Riyadh, Saudi Arabia

12:29 AM AST on February 10, 2016 (GMT +0300)
Alsahafah District Abo Mohammed | | Change Station
CLOSE
Current Station
Personal Weather Station
Location: Riyadh, RIYADH PROVINCE
Elevation: 2129 ft
Nearby Weather Stations

Elev 2129 ft 24.79 °N, 46.65 °E | Updated 3 minutes ago

Clear
Clear
52.2 °F
Feels Like 52.2 °F
N
0.0
Wind Variable Wind from SSW

Today
High -- | Low -- °F
--% Chance of Precip.
Yesterday
High -- | Low -- °F
Precip. -- in
Pressure 30.21 in
Visibility -9999.0 miles
Clouds
Dew Point 25 °F
Humidity 35%
Rainfall 0.00 in
Snow Depth Not available.
6:30 AM 5:44 PM
New Moon, 2% visible
METAR OERK 092100Z 07003KT CAVOK 10/M06 Q1023 NOSIG
Pressure 30.21 in
Visibility -9999.0 miles
Clouds
Dew Point 25 °F
Humidity 35%
Rainfall 0.00 in
Snow Depth Not available.
6:30 AM 5:44 PM
New Moon, 2% visible
METAR OERK 092100Z 07003KT CAVOK 10/M06 Q1023 NOSIG

10-Day Weather Forecast

No radar image for this location.
×

Almanac

Astronomy

Feb. 10, 2016 Rise Set
Actual Time
Civil Twilight
Nautical Twilight
Astronomical Twilight
Moon
Length of Visible Light
Length of Day
Tomorrow will be .
, % of the Moon is Illuminated

Today's Extremes

Country Highs Country Lows

Community

WunderPhotos

Upload Photos

1,891,708 photos uploaded!

WunderBlog® & News

Nearby

Air Quality

  Air Quality AQ Index Pollutant
Not available.

Snow Depth

Station Depth Elevation

Earthquake Activity

City Distance Mag. Time & Date
Minimum magnitude displayed is 2.5.

Coastal Water Temperatures

Place Temperature

Stations

Nearby Weather Stations

Station Location Temp. Windchill Dew Point Humidity Wind Precip. Elev Updated Type